Time;durP1;ratioP1;P1;durP2;ratioP2;P2;SDS_P1;SDS_P2;PMS_P1;PMS_P2;Temp;Humidity;BMP_temperature;BMP_pressure;BME280_temperature;BME280_humidity;BME280_pressure;Samples;Min_cycle;Max_cycle;Signal;HPM_P1;HPM_P2
2023/02/08 00:00:41;;;;;;;12.30;7.87;;;;;;;;;;4992580;28;20796;-50
2023/02/08 00:03:07;;;;;;;10.53;7.30;;;-0.10;70.80;;;;;;4992666;28;20417;-49
2023/02/08 00:05:33;;;;;;;11.87;8.50;;;-0.20;71.00;;;;;;4992791;28;20416;-50
2023/02/08 00:07:58;;;;;;;11.70;7.60;;;-0.10;71.60;;;;;;4992746;28;20220;-50
2023/02/08 00:10:24;;;;;;;13.57;7.77;;;-0.10;71.10;;;;;;4992592;28;20451;-51
2023/02/08 00:12:51;;;;;;;12.50;8.17;;;;;;;;;;4992803;28;20193;-52
2023/02/08 00:15:17;;;;;;;10.40;7.50;;;;;;;;;;4992758;28;20228;-53
2023/02/08 00:17:43;;;;;;;13.87;8.80;;;-0.10;71.10;;;;;;4991687;28;20463;-49
2023/02/08 00:20:09;;;;;;;12.67;8.23;;;-0.20;69.50;;;;;;4992219;28;20866;-50
2023/02/08 00:22:36;;;;;;;11.53;8.17;;;;;;;;;;4991629;28;20475;-52
2023/02/08 00:25:02;;;;;;;12.23;7.93;;;;;;;;;;4992051;28;20416;-49
2023/02/08 00:27:28;;;;;;;13.23;9.10;;;-0.40;72.40;;;;;;4990694;28;20432;-50
2023/02/08 00:29:53;;;;;;;12.80;8.63;;;-0.40;71.70;;;;;;4992252;28;20315;-50
2023/02/08 00:32:19;;;;;;;16.10;10.00;;;;;;;;;;4991725;28;20196;-53
2023/02/08 00:34:45;;;;;;;12.37;8.60;;;;;;;;;;5000432;28;20186;-52
2023/02/08 00:37:11;;;;;;;15.53;10.00;;;;;;;;;;4990643;28;20475;-51
2023/02/08 00:39:37;;;;;;;12.60;9.13;;;;;;;;;;4991653;28;20275;-53
2023/02/08 00:42:03;;;;;;;14.17;9.63;;;;;;;;;;4991395;28;20228;-53
2023/02/08 00:44:29;;;;;;;15.03;9.63;;;;;;;;;;4991799;28;20470;-50
2023/02/08 00:46:55;;;;;;;15.30;9.93;;;;;;;;;;4991094;28;20462;-50
2023/02/08 00:49:21;;;;;;;14.73;10.23;;;;;;;;;;4991990;28;20667;-50
2023/02/08 00:51:47;;;;;;;13.73;9.13;;;;;;;;;;4991926;28;20424;-50
2023/02/08 00:54:15;;;;;;;15.83;10.23;;;-0.60;53.40;;;;;;4990043;28;20186;-50
2023/02/08 00:56:41;;;;;;;15.03;10.13;;;-0.50;74.30;;;;;;4991140;28;20656;-50
2023/02/08 00:59:07;;;;;;;16.63;10.03;;;;;;;;;;4991954;28;20447;-50
2023/02/08 01:01:33;;;;;;;14.57;9.67;;;;;;;;;;4991774;28;20504;-50
2023/02/08 01:03:59;;;;;;;17.90;10.33;;;-0.50;74.80;;;;;;4991485;28;21942;-51
2023/02/08 01:06:24;;;;;;;14.87;9.77;;;;;;;;;;4991291;28;20425;-52
2023/02/08 01:08:50;;;;;;;15.80;9.97;;;;;;;;;;4991569;28;20207;-50
2023/02/08 01:11:21;;;;;;;14.63;9.63;;;-0.60;51.50;;;;;;4991688;28;20193;-49
2023/02/08 01:13:47;;;;;;;14.07;9.33;;;;;;;;;;4991578;28;20499;-50
2023/02/08 01:16:18;;;;;;;17.63;10.40;;;-0.60;55.40;;;;;;4991283;28;20495;-51
2023/02/08 01:18:46;;;;;;;15.83;9.53;;;-0.60;77.00;;;;;;4994559;28;20200;-51
2023/02/08 01:21:18;;;;;;;16.87;10.47;;;1.60;54.50;;;;;;4989955;28;20819;-50
2023/02/08 01:23:44;;;;;;;14.27;9.47;;;-0.70;71.60;;;;;;4991655;28;20416;-53
2023/02/08 01:26:11;;;;;;;14.60;10.23;;;-0.40;53.60;;;;;;4989396;28;20963;-50
2023/02/08 01:28:37;;;;;;;14.43;9.57;;;-0.70;77.80;;;;;;4991614;28;20729;-50
2023/02/08 01:31:08;;;;;;;15.90;10.03;;;-0.60;78.50;;;;;;4991452;28;20515;-51
2023/02/08 01:33:34;;;;;;;14.87;9.97;;;-0.30;55.10;;;;;;4991596;28;20424;-51
2023/02/08 01:36:00;;;;;;;14.13;9.20;;;;;;;;;;4990843;28;20431;-52
2023/02/08 01:38:26;;;;;;;13.90;9.03;;;;;;;;;;4991496;28;20457;-53
2023/02/08 01:40:52;;;;;;;14.57;9.40;;;;;;;;;;4991783;28;20276;-53
2023/02/08 01:43:25;;;;;;;14.97;10.33;;;;;;;;;;4990921;28;20845;-51
2023/02/08 01:45:51;;;;;;;15.30;10.67;;;-1.00;62.40;;;;;;4988689;28;20424;-53
2023/02/08 01:48:34;;;;;;;18.87;12.37;;;-0.90;62.90;;;;;;4975339;28;20440;-52
2023/02/08 01:51:12;;;;;;;18.37;11.63;;;;;;;;;;4992733;28;20296;-50
2023/02/08 01:53:39;;;;;;;17.10;11.47;;;-0.90;83.50;;;;;;4985199;28;20455;-50
2023/02/08 01:56:10;;;;;;;16.90;11.50;;;-0.90;58.10;;;;;;4995246;28;20435;-52
2023/02/08 01:58:42;;;;;;;17.47;11.50;;;-2.00;57.30;;;;;;4995502;28;20462;-50
2023/02/08 02:01:08;;;;;;;22.90;12.37;;;-0.80;83.90;;;;;;4994851;28;20436;-52
2023/02/08 02:03:34;;;;;;;17.53;11.03;;;;;;;;;;4995356;28;20462;-50
2023/02/08 02:06:06;;;;;;;18.63;12.10;;;-0.80;59.70;;;;;;4994910;28;20927;-52
2023/02/08 02:08:32;;;;;;;20.13;13.73;;;-0.80;86.10;;;;;;4995404;28;20185;-50
2023/02/08 02:10:58;;;;;;;20.47;14.07;;;-0.80;86.10;;;;;;4995351;28;20455;-51
2023/02/08 02:13:25;;;;;;;22.60;15.03;;;-0.60;60.80;;;;;;4994251;28;20185;-53
2023/02/08 02:15:52;;;;;;;25.43;15.10;;;;;;;;;;4995001;28;20200;-51
2023/02/08 02:18:29;;;;;;;21.80;14.27;;;;;;;;;;4993916;28;20479;-54
2023/02/08 02:21:00;;;;;;;25.03;15.50;;;-0.80;86.70;;;;;;4994950;28;20432;-51
2023/02/08 02:23:50;;;;;;;23.07;15.27;;;-0.80;60.70;;;;;;4994236;28;20412;-52
2023/02/08 02:26:16;;;;;;;21.43;14.00;;;;;;;;;;4994838;28;20444;-52
2023/02/08 02:29:03;;;;;;;20.33;13.60;;;-0.70;60.50;;;;;;4995049;28;20433;-53
2023/02/08 02:31:47;;;;;;;20.17;13.30;;;-0.70;76.00;;;;;;4996049;28;20187;-51
2023/02/08 02:34:34;;;;;;;19.53;12.87;;;;;;;;;;4993501;28;20783;-52
2023/02/08 02:37:18;;;;;;;21.90;12.70;;;;;;;;;;4994221;28;20456;-51
2023/02/08 02:39:53;;;;;;;20.50;13.33;;;;;;;;;;4994762;28;20431;-52
2023/02/08 02:46:06;;;;;;;19.50;13.77;;;-0.80;62.40;;;;;;4994668;28;20470;-51
2023/02/08 02:48:57;;;;;;;20.83;13.37;;;-0.70;66.80;;;;;;4994556;28;20440;-53
2023/02/08 02:51:28;;;;;;;19.77;12.50;;;;;;;;;;4993454;28;20432;-52
2023/02/08 02:54:17;;;;;;;17.60;12.43;;;-0.80;88.80;;;;;;4993717;28;20409;-50
2023/02/08 02:56:46;;;;;;;18.33;12.63;;;-0.70;63.90;;;;;;4993362;28;20493;-51
2023/02/08 02:59:14;;;;;;;20.40;13.20;;;-0.80;64.50;;;;;;4994429;28;20452;-54
2023/02/08 03:01:42;;;;;;;21.03;13.27;;;-0.80;65.40;;;;;;4993751;28;20806;-52
2023/02/08 03:04:14;;;;;;;18.70;12.60;;;;;;;;;;4993610;28;20460;-51
2023/02/08 03:06:47;;;;;;;17.83;12.23;;;;;;;;;;4993122;28;20520;-56
2023/02/08 03:09:35;;;;;;;18.03;12.33;;;;;;;;;;4993581;28;20423;-52
2023/02/08 03:12:44;;;;;;;20.27;12.10;;;-0.80;65.90;;;;;;4993866;28;20795;-52
2023/02/08 03:15:28;;;;;;;20.93;13.47;;;;;;;;;;4972144;28;20480;-48
2023/02/08 03:18:08;;;;;;;22.07;13.47;;;;;;;;;;4987197;28;20839;-51
2023/02/08 03:20:39;;;;;;;18.30;12.50;;;-0.90;65.40;;;;;;4985925;28;20428;-52
2023/02/08 03:23:19;;;;;;;20.70;13.83;;;;;;;;;;4991293;28;20424;-51
2023/02/08 03:25:53;;;;;;;21.87;13.93;;;-1.00;65.80;;;;;;4990980;28;20467;-51
2023/02/08 03:28:33;;;;;;;20.77;13.13;;;-1.00;72.20;;;;;;4991578;28;20421;-51
2023/02/08 03:31:12;;;;;;;20.30;13.43;;;;;;;;;;4991426;28;20514;-51
2023/02/08 03:33:49;;;;;;;20.30;13.67;;;-1.10;67.40;;;;;;4991031;28;20420;-53
2023/02/08 03:36:46;;;;;;;20.70;13.30;;;-0.90;75.10;;;;;;4990888;28;20811;-53
2023/02/08 03:39:15;;;;;;;20.97;13.67;;;-1.00;69.40;;;;;;4990993;28;20515;-54
2023/02/08 03:41:45;;;;;;;23.20;14.93;;;-1.00;68.60;;;;;;4990472;28;20409;-51
2023/02/08 03:44:21;;;;;;;25.50;15.07;;;;;;;;;;4991367;28;20831;-51
2023/02/08 03:47:00;;;;;;;21.07;13.80;;;-1.00;74.20;;;;;;4990873;28;20423;-54
2023/02/08 03:49:32;;;;;;;21.57;14.70;;;-0.90;92.50;;;;;;4992577;28;20435;-51
2023/02/08 03:52:02;;;;;;;21.20;13.87;;;-1.00;70.60;;;;;;4992996;28;20899;-55
2023/02/08 03:54:33;;;;;;;19.77;12.67;;;-0.90;71.40;;;;;;4993276;28;20408;-51
2023/02/08 03:57:22;;;;;;;20.77;13.70;;;-0.80;91.80;;;;;;4993124;28;20447;-51
2023/02/08 04:00:03;;;;;;;20.83;13.67;;;-0.90;70.40;;;;;;4993315;28;20519;-53
2023/02/08 04:02:32;;;;;;;22.17;14.57;;;-0.70;91.60;;;;;;4993295;28;20504;-53
2023/02/08 04:04:59;;;;;;;22.40;14.40;;;-0.90;82.60;;;;;;4991564;28;20532;-51
2023/02/08 04:07:25;;;;;;;22.50;14.70;;;;;;;;;;4992653;28;20424;-54
2023/02/08 04:09:51;;;;;;;21.87;13.20;;;;;;;;;;4993067;28;20448;-52
2023/02/08 04:12:17;;;;;;;19.87;13.83;;;;;;;;;;4992214;28;20456;-54
2023/02/08 04:14:42;;;;;;;20.70;14.20;;;-1.00;85.70;;;;;;4992616;28;20559;-51
2023/02/08 04:17:08;;;;;;;23.13;14.57;;;-1.00;93.20;;;;;;4991248;28;20452;-51
2023/02/08 04:19:34;;;;;;;23.47;15.30;;;;;;;;;;4992776;28;20200;-51
2023/02/08 04:22:00;;;;;;;25.37;15.70;;;;;;;;;;4992396;28;20548;-54
2023/02/08 04:24:26;;;;;;;21.00;14.73;;;;;;;;;;4992777;28;20192;-54
2023/02/08 04:26:52;;;;;;;21.37;14.77;;;;;;;;;;4992301;28;20193;-51
2023/02/08 04:29:18;;;;;;;23.57;15.07;;;;;;;;;;4992797;28;20200;-51
2023/02/08 04:31:43;;;;;;;21.13;13.93;;;;;;;;;;4992671;28;20252;-51
2023/02/08 04:34:09;;;;;;;18.83;11.73;;;-1.10;93.60;;;;;;4992633;28;20185;-51
2023/02/08 04:36:35;;;;;;;14.70;10.47;;;;;;;;;;4991822;28;20208;-51
2023/02/08 04:39:01;;;;;;;16.03;10.00;;;-1.10;93.00;;;;;;4992533;28;20251;-52
2023/02/08 04:41:26;;;;;;;16.20;10.50;;;;;;;;;;4992608;28;20420;-54
2023/02/08 04:43:53;;;;;;;17.63;10.80;;;;;;;;;;4991875;28;20216;-51
2023/02/08 04:46:19;;;;;;;15.57;10.77;;;;;;;;;;4990312;28;20208;-51
2023/02/08 04:48:44;;;;;;;17.77;10.93;;;-1.30;90.50;;;;;;4992961;28;20412;-51
2023/02/08 04:51:10;;;;;;;19.17;11.57;;;-1.40;94.20;;;;;;4991512;28;20347;-51
2023/02/08 04:53:35;;;;;;;20.33;12.93;;;-1.50;86.90;;;;;;4992179;28;20294;-51
2023/02/08 04:56:01;;;;;;;20.27;12.77;;;;;;;;;;4991939;28;20189;-55
2023/02/08 04:58:27;;;;;;;22.80;14.33;;;-1.50;94.80;;;;;;4992170;28;20208;-54
2023/02/08 05:00:52;;;;;;;19.27;13.07;;;-1.50;94.70;;;;;;4992105;28;20436;-52
2023/02/08 05:03:18;;;;;;;20.60;10.90;;;;;;;;;;4991507;28;20182;-54
2023/02/08 05:05:44;;;;;;;17.40;11.73;;;;;;;;;;4991529;28;20666;-51
2023/02/08 05:08:10;;;;;;;17.77;10.60;;;;;;;;;;4992134;28;20529;-54
2023/02/08 05:10:36;;;;;;;23.23;13.10;;;;;;;;;;5027111;23;20560;-56
2023/02/08 05:13:02;;;;;;;21.03;12.60;;;;;;;;;;4985364;28;20192;-52
2023/02/08 05:15:28;;;;;;;20.43;12.40;;;;;;;;;;4986142;28;20263;-49
2023/02/08 05:17:54;;;;;;;18.43;12.43;;;;;;;;;;4983044;28;21105;-54
2023/02/08 05:20:20;;;;;;;24.57;14.63;;;;;;;;;;5006272;28;20443;-51
2023/02/08 05:22:46;;;;;;;22.10;14.90;;;-1.80;92.50;;;;;;4983426;28;20212;-51
2023/02/08 05:25:11;;;;;;;23.47;13.67;;;-1.80;96.20;;;;;;4988502;28;20459;-50
2023/02/08 05:27:37;;;;;;;23.80;14.50;;;-1.70;85.20;;;;;;4986099;28;20188;-51
2023/02/08 05:30:03;;;;;;;24.00;14.03;;;;;;;;;;4987990;28;20189;-54
2023/02/08 05:32:29;;;;;;;21.57;14.90;;;;;;;;;;4984255;28;20208;-53
2023/02/08 05:34:55;;;;;;;22.07;14.30;;;;;;;;;;4991339;28;20466;-54
2023/02/08 05:37:21;;;;;;;26.57;15.83;;;;;;;;;;4991015;28;20201;-54
2023/02/08 05:39:46;;;;;;;23.87;14.70;;;-2.00;97.10;;;;;;4991652;28;20220;-50
2023/02/08 05:42:12;;;;;;;24.90;14.80;;;-1.90;97.00;;;;;;4991454;28;20564;-51
2023/02/08 05:44:38;;;;;;;26.83;14.63;;;-1.90;88.80;;;;;;4991486;28;20173;-52
2023/02/08 05:47:04;;;;;;;24.40;14.70;;;;;;;;;;4989860;28;20185;-54
2023/02/08 05:49:30;;;;;;;22.00;14.57;;;;;;;;;;4992414;28;20181;-53
2023/02/08 05:51:56;;;;;;;23.20;14.33;;;;;;;;;;4971763;28;20536;-51
2023/02/08 05:54:21;;;;;;;25.37;15.30;;;-1.80;97.90;;;;;;4972186;28;21144;-51
2023/02/08 05:56:47;;;;;;;24.57;14.60;;;-1.90;98.00;;;;;;4971351;28;20641;-51
2023/02/08 05:59:12;;;;;;;23.43;14.93;;;-1.90;95.30;;;;;;4971983;28;20209;-50
2023/02/08 06:01:39;;;;;;;21.37;14.83;;;-2.00;82.90;;;;;;4971783;28;20193;-54
2023/02/08 06:04:05;;;;;;;23.00;14.87;;;;;;;;;;4975667;28;20181;-54
2023/02/08 06:06:31;;;;;;;26.40;15.90;;;;;;;;;;4990777;28;20412;-52
2023/02/08 06:08:57;;;;;;;22.07;15.10;;;;;;;;;;4988218;28;20544;-57
2023/02/08 06:11:22;;;;;;;25.43;16.33;;;-2.00;99.10;;;;;;4988943;28;20220;-50
2023/02/08 06:13:48;;;;;;;21.53;14.47;;;-2.10;93.90;;;;;;4989932;28;20216;-52
2023/02/08 06:16:14;;;;;;;24.17;14.90;;;-2.10;99.60;;;;;;4985428;28;20235;-51
2023/02/08 06:18:40;;;;;;;21.73;14.20;;;-2.20;99.90;;;;;;4989562;28;20201;-51
2023/02/08 06:21:06;;;;;;;22.93;14.53;;;;;;;;;;4990698;28;20495;-51
2023/02/08 06:23:32;;;;;;;25.63;15.40;;;;;;;;;;4991244;28;20258;-52
2023/02/08 06:25:58;;;;;;;25.13;15.03;;;;;;;;;;4989659;28;20177;-57
2023/02/08 06:28:24;;;;;;;23.58;14.70;;;;;;;;;;4987840;28;20880;-52
2023/02/08 06:30:50;;;;;;;21.50;14.80;;;-2.40;89.20;;;;;;4991031;28;20208;-53
2023/02/08 06:33:17;;;;;;;22.38;14.68;;;-2.30;90.20;;;;;;4991147;28;20463;-50
2023/02/08 06:35:49;;;;;;;23.30;14.90;;;-2.20;89.40;;;;;;4992201;28;20308;-51
2023/02/08 06:38:14;;;;;;;24.92;14.85;;;-2.30;99.90;;;;;;4994513;28;20974;-50
2023/02/08 06:40:41;;;;;;;22.33;14.90;;;;;;;;;;4994337;28;20214;-51
2023/02/08 06:43:07;;;;;;;26.03;14.90;;;;;;;;;;4994364;28;20177;-52
2023/02/08 06:45:33;;;;;;;21.57;13.87;;;;;;;;;;4990716;28;20431;-54
2023/02/08 06:47:59;;;;;;;23.53;15.60;;;;;;;;;;4992476;28;20196;-54
2023/02/08 06:50:25;;;;;;;23.58;15.02;;;;;;;;;;4993466;28;20460;-53
2023/02/08 06:52:51;;;;;;;24.95;15.77;;;;;;;;;;4992997;28;20414;-52
2023/02/08 06:55:16;;;;;;;22.87;13.73;;;-3.00;97.50;;;;;;4974685;28;20177;-51
2023/02/08 06:57:42;;;;;;;23.87;15.57;;;;;;;;;;4974604;28;20197;-51
2023/02/08 07:00:08;;;;;;;23.90;15.00;;;;;;;;;;4974745;28;20181;-50
2023/02/08 07:02:34;;;;;;;22.00;13.80;;;-3.10;99.90;;;;;;4983334;28;20224;-50
2023/02/08 07:05:00;;;;;;;22.70;14.43;;;;;;;;;;4992727;28;20197;-50
2023/02/08 07:07:26;;;;;;;21.40;13.60;;;-3.20;97.00;;;;;;4993835;28;20189;-53
2023/02/08 07:09:52;;;;;;;20.50;12.83;;;;;;;;;;4993007;28;20519;-51
2023/02/08 07:12:18;;;;;;;25.27;14.07;;;;;;;;;;4992849;28;20458;-52
2023/02/08 07:14:44;;;;;;;21.50;13.10;;;;;;;;;;4993180;28;20428;-50
2023/02/08 07:17:11;;;;;;;21.43;13.50;;;-2.10;99.50;;;;;;4992259;28;20856;-54
2023/02/08 07:19:37;;;;;;;20.80;13.30;;;-1.70;99.90;;;;;;4992954;28;20695;-50
2023/02/08 07:22:06;;;;;;;23.47;13.30;;;-1.50;93.10;;;;;;4992694;28;20479;-53
2023/02/08 07:24:34;;;;;;;19.77;11.93;;;-1.20;92.60;;;;;;4992404;28;20185;-54
2023/02/08 07:27:00;;;;;;;17.23;11.33;;;-0.80;99.90;;;;;;4993441;28;20511;-50
2023/02/08 07:29:27;;;;;;;17.63;12.00;;;-0.40;99.90;;;;;;4993422;28;20436;-51
2023/02/08 07:31:53;;;;;;;20.13;12.63;;;;;;;;;;4993397;28;20215;-53
2023/02/08 07:34:20;;;;;;;23.17;13.60;;;;;;;;;;4975494;28;20924;-56
2023/02/08 07:36:47;;;;;;;18.77;12.30;;;1.10;98.10;;;;;;4982794;28;20190;-51
2023/02/08 07:39:13;;;;;;;18.03;12.40;;;;;;;;;;4991399;28;20416;-53
2023/02/08 07:41:39;;;;;;;20.10;13.20;;;;;;;;;;4991107;28;20440;-54
2023/02/08 07:44:05;;;;;;;17.93;12.80;;;;;;;;;;4992444;28;20280;-59
2023/02/08 07:46:31;;;;;;;20.13;12.93;;;3.60;92.60;;;;;;4990324;28;20796;-51
2023/02/08 07:48:56;;;;;;;18.53;13.57;;;4.00;91.70;;;;;;4991061;28;20197;-49
2023/02/08 07:51:22;;;;;;;16.90;12.47;;;5.00;90.10;;;;;;4990565;28;20320;-52
2023/02/08 07:53:48;;;;;;;17.40;13.10;;;;;;;;;;4993084;28;20177;-53
2023/02/08 07:56:14;;;;;;;15.67;12.57;;;;;;;;;;4992256;28;20184;-56
2023/02/08 07:58:40;;;;;;;15.67;11.73;;;;;;;;;;4992104;28;20205;-57
2023/02/08 08:01:06;;;;;;;14.43;12.30;;;;;;;;;;4992652;28;20224;-57
2023/02/08 08:03:32;;;;;;;16.67;13.10;;;;;;;;;;4991761;28;20634;-53
2023/02/08 08:05:58;;;;;;;15.77;13.07;;;10.70;65.90;;;;;;4991635;28;20185;-49
2023/02/08 08:08:23;;;;;;;13.87;12.10;;;;;;;;;;4985374;28;20216;-50
2023/02/08 08:10:50;;;;;;;16.07;13.37;;;;;;;;;;4991945;28;20213;-52
2023/02/08 08:13:15;;;;;;;15.20;13.03;;;;;;;;;;4992168;28;20174;-52
2023/02/08 08:15:41;;;;;;;15.87;13.07;;;13.70;56.80;;;;;;4991899;28;20183;-53
2023/02/08 08:18:07;;;;;;;13.00;11.63;;;13.70;36.80;;;;;;4992605;28;20213;-53
2023/02/08 08:20:33;;;;;;;16.40;12.83;;;15.50;47.30;;;;;;4992218;28;20193;-53
2023/02/08 08:22:59;;;;;;;16.93;15.13;;;;;;;;;;4992602;28;20180;-51
2023/02/08 08:25:25;;;;;;;14.10;12.60;;;;;;;;;;4992266;28;20174;-52
2023/02/08 08:27:52;;;;;;;16.30;14.70;;;16.70;31.30;;;;;;4992435;28;20180;-54
2023/02/08 08:30:18;;;;;;;13.23;11.83;;;;;;;;;;4992236;28;20177;-52
2023/02/08 08:32:44;;;;;;;12.83;11.53;;;;;;;;;;4992359;28;20521;-52
2023/02/08 08:35:10;;;;;;;13.37;11.97;;;13.50;27.60;;;;;;4992089;28;20184;-54
2023/02/08 08:37:36;;;;;;;12.43;11.13;;;;;;;;;;4991942;28;20232;-56
2023/02/08 08:40:03;;;;;;;12.27;11.07;;;18.20;34.70;;;;;;4992248;28;20683;-50
2023/02/08 08:42:28;;;;;;;12.57;11.33;;;19.00;45.60;;;;;;4985815;28;20181;-53
2023/02/08 08:44:54;;;;;;;12.90;11.60;;;18.40;30.00;;;;;;4992100;28;20192;-54
2023/02/08 08:47:20;;;;;;;12.93;11.60;;;;;;;;;;4991917;28;20177;-52
2023/02/08 08:49:46;;;;;;;13.85;12.45;;;;;;;;;;4992126;28;20681;-52
2023/02/08 08:52:13;;;;;;;13.15;11.77;;;20.90;26.80;;;;;;4990855;28;20747;-54
2023/02/08 08:54:39;;;;;;;13.18;11.77;;;;;;;;;;4992024;28;20181;-54
2023/02/08 08:57:05;;;;;;;12.88;11.57;;;;;;;;;;4988565;28;20205;-53
2023/02/08 08:59:31;;;;;;;12.50;11.30;;;;;;;;;;4990721;28;20641;-55
2023/02/08 09:01:57;;;;;;;12.80;11.60;;;23.10;27.90;;;;;;4990998;28;20296;-53
2023/02/08 09:04:22;;;;;;;15.68;14.07;;;22.40;33.10;;;;;;4991646;28;20353;-53
2023/02/08 09:06:52;;;;;;;13.30;12.00;;;21.70;38.60;;;;;;4985417;28;20609;-55
2023/02/08 09:09:19;;;;;;;14.75;13.35;;;22.20;38.40;;;;;;4991815;28;20184;-55
2023/02/08 09:11:45;;;;;;;13.25;11.95;;;21.10;38.40;;;;;;4991602;28;20223;-57
2023/02/08 09:14:11;;;;;;;11.85;10.65;;;;;;;;;;4990953;28;20671;-55
2023/02/08 09:16:39;;;;;;;12.45;11.35;;;23.20;26.20;;;;;;4991438;28;20227;-57
2023/02/08 09:19:07;;;;;;;11.20;10.10;;;23.70;36.30;;;;;;4991696;28;20204;-55
2023/02/08 09:21:33;;;;;;;11.63;10.52;;;25.10;36.10;;;;;;4991401;28;20606;-56
2023/02/08 09:24:00;;;;;;;11.23;10.23;;;25.70;34.10;;;;;;4991745;28;20613;-58
2023/02/08 09:26:26;;;;;;;11.18;10.07;;;;;;;;;;4991331;28;20185;-57
2023/02/08 09:28:52;;;;;;;10.55;9.63;;;;;;;;;;4991669;28;20180;-59
2023/02/08 09:31:18;;;;;;;11.23;10.13;;;;;;;;;;4990681;28;20205;-59
2023/02/08 09:33:44;;;;;;;10.25;9.32;;;;;;;;;;4991533;28;20255;-58
2023/02/08 09:36:11;;;;;;;10.77;9.73;;;;;;;;;;4991208;28;20231;-56
2023/02/08 09:38:37;;;;;;;10.63;9.52;;;;;;;;;;4991449;28;20201;-57
2023/02/08 09:41:05;;;;;;;9.73;8.82;;;26.80;20.00;;;;;;4991359;28;20251;-59
2023/02/08 09:43:42;;;;;;;10.75;9.75;;;27.00;20.00;;;;;;4991557;28;20532;-59
2023/02/08 09:46:20;;;;;;;11.00;10.00;;;27.30;31.20;;;;;;4991440;28;20172;-58
2023/02/08 09:48:48;;;;;;;10.23;9.25;;;28.50;30.00;;;;;;4991467;28;20193;-60
2023/02/08 09:51:29;;;;;;;10.00;9.00;;;28.20;29.00;;;;;;4991313;28;20263;-56
2023/02/08 09:54:13;;;;;;;10.23;9.23;;;28.70;18.20;;;;;;4991507;28;20169;-58
2023/02/08 09:56:41;;;;;;;9.88;8.98;;;28.90;23.30;;;;;;4991191;28;20264;-58
2023/02/08 09:59:25;;;;;;;14.80;13.30;;;28.00;28.50;;;;;;4991364;28;20551;-58
2023/02/08 10:01:59;;;;;;;9.30;8.40;;;27.70;18.40;;;;;;4991167;28;20216;-57
2023/02/08 10:04:40;;;;;;;8.85;8.05;;;27.50;18.00;;;;;;4990600;28;20740;-54
2023/02/08 10:07:09;;;;;;;9.13;8.25;;;28.00;18.20;;;;;;4990823;28;20174;-60
2023/02/08 10:09:35;;;;;;;10.18;8.68;;;28.00;28.00;;;;;;4991477;28;20264;-57
2023/02/08 10:12:15;;;;;;;9.27;8.38;;;27.00;28.60;;;;;;4994828;28;20236;-57
2023/02/08 10:15:15;;;;;;;9.25;8.35;;;27.50;17.70;;;;;;4995400;28;20185;-59
2023/02/08 10:17:40;;;;;;;11.32;10.23;;;;;;;;;;4994766;28;20221;-59
2023/02/08 10:20:19;;;;;;;12.95;11.75;;;25.40;18.70;;;;;;4992876;28;20695;-55
2023/02/08 10:23:10;;;;;;;9.82;8.82;;;25.50;18.60;;;;;;4990758;28;20180;-58
2023/02/08 10:25:51;;;;;;;9.65;8.75;;;24.50;18.50;;;;;;4993559;28;20178;-55
2023/02/08 10:28:28;;;;;;;10.27;9.30;;;22.50;33.90;;;;;;4993888;28;20173;-55
2023/02/08 10:31:15;;;;;;;10.25;9.25;;;21.60;20.20;;;;;;4994448;28;20267;-51
2023/02/08 10:34:08;;;;;;;9.57;8.68;;;22.10;20.20;;;;;;4994664;28;20178;-57
2023/02/08 10:36:40;;;;;;;9.95;8.95;;;23.80;32.50;;;;;;4994198;28;20177;-57
2023/02/08 10:39:19;;;;;;;10.40;9.38;;;25.00;19.70;;;;;;4994029;28;20205;-60
2023/02/08 10:41:46;;;;;;;9.50;8.60;;;26.10;19.10;;;;;;4994818;28;20224;-54
2023/02/08 10:44:40;;;;;;;9.80;8.80;;;27.30;18.50;;;;;;4994694;28;20197;-57
2023/02/08 10:47:30;;;;;;;10.55;8.65;;;28.10;17.90;;;;;;4994155;28;20176;-57
2023/02/08 10:50:19;;;;;;;9.52;8.63;;;28.50;28.50;;;;;;4993046;28;20672;-56
2023/02/08 10:52:46;;;;;;;9.05;8.25;;;;;;;;;;4994553;28;20169;-59
2023/02/08 10:55:18;;;;;;;9.80;8.77;;;29.10;28.00;;;;;;4993440;28;20199;-54
2023/02/08 10:57:47;;;;;;;10.05;9.05;;;28.50;17.30;;;;;;4993687;28;20209;-54
2023/02/08 11:00:24;;;;;;;9.95;8.98;;;28.00;16.60;;;;;;4993679;28;20170;-54
2023/02/08 11:02:51;;;;;;;8.90;8.10;;;27.00;29.20;;;;;;4994219;28;20231;-55
2023/02/08 11:05:35;;;;;;;9.57;8.60;;;27.00;17.70;;;;;;4993818;28;20256;-59
2023/02/08 11:08:06;;;;;;;10.23;8.48;;;25.80;27.40;;;;;;4993907;28;20212;-51
2023/02/08 11:13:12;;;;;;;9.07;8.18;;;20.60;20.00;;;;;;4995460;23;20242;-52
2023/02/08 11:15:42;;;;;;;9.63;8.73;;;20.70;33.40;;;;;;4973496;28;20178;-52
2023/02/08 11:18:19;;;;;;;9.07;8.18;;;22.10;33.00;;;;;;4974383;28;20288;-53
2023/02/08 11:20:48;;;;;;;9.38;8.48;;;24.30;19.80;;;;;;4974266;28;20406;-50
2023/02/08 11:23:18;;;;;;;8.73;7.82;;;25.50;18.50;;;;;;4974508;28;20178;-52
2023/02/08 11:25:44;;;;;;;8.93;8.13;;;;;;;;;;4974712;28;20210;-52
2023/02/08 11:28:28;;;;;;;9.23;8.35;;;26.50;17.70;;;;;;4975119;28;20197;-50
2023/02/08 11:31:07;;;;;;;10.38;8.43;;;27.20;19.70;;;;;;4968146;28;20197;-53
2023/02/08 11:33:33;;;;;;;9.23;8.43;;;27.30;26.10;;;;;;4974221;28;20212;-50
2023/02/08 11:36:03;;;;;;;10.20;9.20;;;27.30;20.90;;;;;;4974186;28;20393;-50
2023/02/08 11:38:30;;;;;;;8.98;8.13;;;27.20;20.70;;;;;;4974360;28;20702;-53
2023/02/08 11:40:59;;;;;;;8.95;8.05;;;28.00;16.80;;;;;;4974254;28;20194;-50
2023/02/08 11:43:31;;;;;;;8.88;8.07;;;27.60;16.30;;;;;;4974012;28;20175;-53
2023/02/08 11:45:58;;;;;;;8.77;7.97;;;26.90;17.50;;;;;;4973040;28;20646;-54
2023/02/08 11:48:44;;;;;;;8.55;7.75;;;26.70;17.00;;;;;;4973689;28;20790;-53
2023/02/08 11:51:13;;;;;;;8.85;8.02;;;27.40;27.80;;;;;;4974089;28;20300;-50
2023/02/08 11:53:44;;;;;;;8.60;7.78;;;27.50;17.30;;;;;;4974350;28;20177;-53
2023/02/08 11:56:19;;;;;;;8.50;7.75;;;27.70;17.00;;;;;;4973709;28;20265;-51
2023/02/08 11:59:13;;;;;;;8.52;7.72;;;27.30;16.80;;;;;;4973865;28;20211;-50
2023/02/08 12:01:41;;;;;;;8.23;7.53;;;27.30;16.90;;;;;;4973971;28;20649;-53
2023/02/08 12:04:12;;;;;;;8.35;7.55;;;27.20;23.60;;;;;;4973918;28;20178;-50
2023/02/08 12:06:49;;;;;;;7.78;7.05;;;25.60;18.70;;;;;;4973256;28;20182;-51
2023/02/08 12:09:42;;;;;;;7.60;6.90;;;24.20;31.00;;;;;;4972496;28;20198;-50
2023/02/08 12:12:24;;;;;;;7.55;6.80;;;22.50;18.40;;;;;;4973102;28;20216;-52
2023/02/08 12:15:07;;;;;;;7.45;6.30;;;21.80;23.50;;;;;;4972513;28;20177;-50
2023/02/08 12:17:50;;;;;;;6.82;6.20;;;21.30;23.10;;;;;;4973273;28;20238;-50
2023/02/08 12:20:19;;;;;;;7.57;6.85;;;19.80;32.60;;;;;;4964801;28;20270;-49
2023/02/08 12:23:12;;;;;;;6.68;5.97;;;19.10;22.50;;;;;;4965407;28;20194;-51
2023/02/08 12:25:57;;;;;;;7.82;6.70;;;17.40;35.90;;;;;;4973148;28;20181;-50
2023/02/08 12:28:23;;;;;;;6.97;6.28;;;17.90;32.10;;;;;;4973684;28;20176;-51
2023/02/08 12:31:41;;;;;;;7.28;6.38;;;18.80;21.40;;;;;;4973282;28;20204;-50
2023/02/08 12:34:24;;;;;;;6.93;6.22;;;19.20;24.90;;;;;;4931758;29;20218;-50
2023/02/08 12:43:13;;;;;;;6.82;6.13;;;18.70;21.70;;;;;;4932652;29;20600;-54
2023/02/08 12:45:56;;;;;;;8.85;6.50;;;18.90;36.20;;;;;;4930486;29;20618;-49
2023/02/08 12:48:25;;;;;;;7.35;6.45;;;17.30;34.40;;;;;;4931868;29;20250;-50
2023/02/08 12:51:12;;;;;;;6.55;5.95;;;16.90;39.00;;;;;;4931622;29;20215;-51
2023/02/08 12:53:53;;;;;;;7.10;6.17;;;;;;;;;;4932175;29;20187;-51
2023/02/08 12:56:24;;;;;;;6.47;5.80;;;16.30;23.20;;;;;;4931755;29;20195;-50
2023/02/08 12:58:56;;;;;;;6.80;6.10;;;16.50;38.50;;;;;;4932084;29;20223;-50
2023/02/08 13:01:33;;;;;;;8.97;6.40;;;15.90;23.00;;;;;;4932064;29;20243;-50
2023/02/08 13:04:13;;;;;;;7.10;6.40;;;15.00;24.40;;;;;;4941086;28;20197;-50
2023/02/08 13:06:45;;;;;;;6.20;5.37;;;15.00;23.80;;;;;;4972379;28;20178;-50
2023/02/08 13:09:35;;;;;;;7.10;6.40;;;15.20;26.60;;;;;;4972898;28;20660;-52
2023/02/08 13:12:06;;;;;;;6.87;6.17;;;15.40;24.20;;;;;;4972572;28;20289;-50
2023/02/08 13:14:57;;;;;;;6.33;5.53;;;15.20;40.30;;;;;;4971917;28;20648;-50
2023/02/08 13:17:27;;;;;;;6.37;5.43;;;14.90;24.40;;;;;;4970782;28;20661;-50
2023/02/08 13:20:35;;;;;;;6.07;5.47;;;15.00;24.10;;;;;;4968510;28;20274;-49
2023/02/08 13:23:05;;;;;;;6.03;5.43;;;14.30;36.30;;;;;;4966305;28;20182;-51
2023/02/08 13:25:34;;;;;;;6.03;5.20;;;14.10;42.20;;;;;;4972078;28;20697;-49
2023/02/08 13:28:07;;;;;;;5.63;4.90;;;13.50;40.40;;;;;;4971651;28;20180;-50
2023/02/08 13:30:35;;;;;;;5.50;4.90;;;13.10;25.70;;;;;;4972391;28;20184;-52
2023/02/08 13:33:16;;;;;;;5.57;4.97;;;13.00;42.20;;;;;;4970861;28;20329;-50
2023/02/08 13:35:47;;;;;;;6.00;4.73;;;13.50;27.10;;;;;;4971188;28;20179;-51
2023/02/08 13:38:33;;;;;;;4.63;4.13;;;13.20;42.70;;;;;;4972432;28;20262;-50
2023/02/08 13:41:05;;;;;;;5.23;4.40;;;13.40;38.20;;;;;;4972437;28;20201;-51
2023/02/08 13:43:50;;;;;;;5.10;4.50;;;13.60;43.00;;;;;;4972262;28;20202;-49